sensor_id;sensor_type;location;lat;lon;timestamp;P1;durP1;ratioP1;P2;durP2;ratioP2
11263;SDS011;5689;48.798;9.070;2022-08-19T00:00:42;0.00;;;0.00;;
11263;SDS011;5689;48.798;9.070;2022-08-19T00:03:10;0.00;;;0.00;;
11263;SDS011;5689;48.798;9.070;2022-08-19T00:05:38;0.00;;;0.00;;
11263;SDS011;5689;48.798;9.070;2022-08-19T00:08:06;0.00;;;0.00;;
11263;SDS011;5689;48.798;9.070;2022-08-19T00:10:34;0.10;;;0.10;;
11263;SDS011;5689;48.798;9.070;2022-08-19T00:13:02;0.10;;;0.10;;
11263;SDS011;5689;48.798;9.070;2022-08-19T00:15:32;0.10;;;0.10;;
11263;SDS011;5689;48.798;9.070;2022-08-19T00:18:00;0.10;;;0.10;;
11263;SDS011;5689;48.798;9.070;2022-08-19T00:20:28;0.00;;;0.00;;
11263;SDS011;5689;48.798;9.070;2022-08-19T00:22:56;0.00;;;0.00;;
11263;SDS011;5689;48.798;9.070;2022-08-19T00:25:24;0.00;;;0.00;;
11263;SDS011;5689;48.798;9.070;2022-08-19T00:27:52;0.00;;;0.00;;
11263;SDS011;5689;48.798;9.070;2022-08-19T00:30:20;0.00;;;0.00;;
11263;SDS011;5689;48.798;9.070;2022-08-19T00:32:50;0.00;;;0.00;;
11263;SDS011;5689;48.798;9.070;2022-08-19T00:35:18;0.10;;;0.10;;
11263;SDS011;5689;48.798;9.070;2022-08-19T00:37:46;0.10;;;0.10;;
11263;SDS011;5689;48.798;9.070;2022-08-19T00:40:17;0.00;;;0.00;;
11263;SDS011;5689;48.798;9.070;2022-08-19T00:42:45;0.00;;;0.00;;
11263;SDS011;5689;48.798;9.070;2022-08-19T00:45:14;0.00;;;0.00;;
11263;SDS011;5689;48.798;9.070;2022-08-19T00:47:46;0.10;;;0.10;;
11263;SDS011;5689;48.798;9.070;2022-08-19T00:50:17;0.05;;;0.05;;
11263;SDS011;5689;48.798;9.070;2022-08-19T00:52:48;0.00;;;0.00;;
11263;SDS011;5689;48.798;9.070;2022-08-19T00:55:18;0.10;;;0.10;;
11263;SDS011;5689;48.798;9.070;2022-08-19T00:57:50;0.10;;;0.10;;
11263;SDS011;5689;48.798;9.070;2022-08-19T01:00:22;0.10;;;0.10;;
11263;SDS011;5689;48.798;9.070;2022-08-19T01:02:52;0.10;;;0.10;;
11263;SDS011;5689;48.798;9.070;2022-08-19T01:05:23;0.10;;;0.10;;
11263;SDS011;5689;48.798;9.070;2022-08-19T01:07:55;0.00;;;0.00;;
11263;SDS011;5689;48.798;9.070;2022-08-19T01:10:25;0.10;;;0.10;;
11263;SDS011;5689;48.798;9.070;2022-08-19T01:12:59;0.00;;;0.00;;
11263;SDS011;5689;48.798;9.070;2022-08-19T01:15:31;0.10;;;0.10;;
11263;SDS011;5689;48.798;9.070;2022-08-19T01:18:01;0.10;;;0.10;;
11263;SDS011;5689;48.798;9.070;2022-08-19T01:20:34;0.10;;;0.10;;
11263;SDS011;5689;48.798;9.070;2022-08-19T01:23:04;0.10;;;0.10;;
11263;SDS011;5689;48.798;9.070;2022-08-19T01:25:33;0.20;;;0.20;;
11263;SDS011;5689;48.798;9.070;2022-08-19T01:28:07;0.10;;;0.10;;
11263;SDS011;5689;48.798;9.070;2022-08-19T01:30:35;0.20;;;0.20;;
11263;SDS011;5689;48.798;9.070;2022-08-19T01:33:03;0.20;;;0.20;;
11263;SDS011;5689;48.798;9.070;2022-08-19T01:35:32;0.10;;;0.10;;
11263;SDS011;5689;48.798;9.070;2022-08-19T01:38:05;0.10;;;0.10;;
11263;SDS011;5689;48.798;9.070;2022-08-19T01:40:35;0.10;;;0.10;;
11263;SDS011;5689;48.798;9.070;2022-08-19T01:43:06;0.10;;;0.10;;
11263;SDS011;5689;48.798;9.070;2022-08-19T01:45:34;0.10;;;0.10;;
11263;SDS011;5689;48.798;9.070;2022-08-19T01:48:05;0.10;;;0.10;;
11263;SDS011;5689;48.798;9.070;2022-08-19T01:50:35;0.20;;;0.20;;
11263;SDS011;5689;48.798;9.070;2022-08-19T01:53:06;0.20;;;0.20;;
11263;SDS011;5689;48.798;9.070;2022-08-19T01:55:38;0.30;;;0.30;;
11263;SDS011;5689;48.798;9.070;2022-08-19T01:58:08;0.40;;;0.40;;
11263;SDS011;5689;48.798;9.070;2022-08-19T02:00:40;0.32;;;0.32;;
11263;SDS011;5689;48.798;9.070;2022-08-19T02:03:09;0.30;;;0.30;;
11263;SDS011;5689;48.798;9.070;2022-08-19T02:05:37;0.20;;;0.20;;
11263;SDS011;5689;48.798;9.070;2022-08-19T02:08:08;0.20;;;0.20;;
11263;SDS011;5689;48.798;9.070;2022-08-19T02:10:38;0.30;;;0.30;;
11263;SDS011;5689;48.798;9.070;2022-08-19T02:13:08;0.20;;;0.20;;
11263;SDS011;5689;48.798;9.070;2022-08-19T02:15:36;0.30;;;0.30;;
11263;SDS011;5689;48.798;9.070;2022-08-19T02:18:05;0.30;;;0.30;;
11263;SDS011;5689;48.798;9.070;2022-08-19T02:20:35;0.38;;;0.38;;
11263;SDS011;5689;48.798;9.070;2022-08-19T02:23:04;0.40;;;0.40;;
11263;SDS011;5689;48.798;9.070;2022-08-19T02:25:35;0.40;;;0.40;;
11263;SDS011;5689;48.798;9.070;2022-08-19T02:28:03;0.43;;;0.43;;
11263;SDS011;5689;48.798;9.070;2022-08-19T02:30:31;0.52;;;0.52;;
11263;SDS011;5689;48.798;9.070;2022-08-19T02:33:00;0.57;;;0.57;;
11263;SDS011;5689;48.798;9.070;2022-08-19T02:35:28;0.50;;;0.50;;
11263;SDS011;5689;48.798;9.070;2022-08-19T02:37:56;0.60;;;0.60;;
11263;SDS011;5689;48.798;9.070;2022-08-19T02:40:48;0.73;;;0.73;;
11263;SDS011;5689;48.798;9.070;2022-08-19T02:43:18;0.68;;;0.68;;
11263;SDS011;5689;48.798;9.070;2022-08-19T02:45:47;0.55;;;0.55;;
11263;SDS011;5689;48.798;9.070;2022-08-19T02:48:17;0.55;;;0.55;;
11263;SDS011;5689;48.798;9.070;2022-08-19T02:50:47;0.47;;;0.47;;
11263;SDS011;5689;48.798;9.070;2022-08-19T02:53:21;0.57;;;0.57;;
11263;SDS011;5689;48.798;9.070;2022-08-19T02:55:51;0.38;;;0.38;;
11263;SDS011;5689;48.798;9.070;2022-08-19T02:58:20;0.40;;;0.40;;
11263;SDS011;5689;48.798;9.070;2022-08-19T03:00:49;0.63;;;0.63;;
11263;SDS011;5689;48.798;9.070;2022-08-19T03:03:19;0.30;;;0.30;;
11263;SDS011;5689;48.798;9.070;2022-08-19T03:05:47;0.40;;;0.40;;
11263;SDS011;5689;48.798;9.070;2022-08-19T03:08:15;0.47;;;0.47;;
11263;SDS011;5689;48.798;9.070;2022-08-19T03:10:44;0.40;;;0.40;;
11263;SDS011;5689;48.798;9.070;2022-08-19T03:13:16;0.40;;;0.40;;
11263;SDS011;5689;48.798;9.070;2022-08-19T03:15:46;0.65;;;0.65;;
11263;SDS011;5689;48.798;9.070;2022-08-19T03:18:15;0.57;;;0.57;;
11263;SDS011;5689;48.798;9.070;2022-08-19T03:20:44;0.73;;;0.73;;
11263;SDS011;5689;48.798;9.070;2022-08-19T03:23:13;0.52;;;0.52;;
11263;SDS011;5689;48.798;9.070;2022-08-19T03:25:44;0.73;;;0.73;;
11263;SDS011;5689;48.798;9.070;2022-08-19T03:28:15;0.50;;;0.50;;
11263;SDS011;5689;48.798;9.070;2022-08-19T03:30:54;0.52;;;0.52;;
11263;SDS011;5689;48.798;9.070;2022-08-19T03:33:24;0.63;;;0.63;;
11263;SDS011;5689;48.798;9.070;2022-08-19T03:36:00;0.45;;;0.45;;
11263;SDS011;5689;48.798;9.070;2022-08-19T03:38:33;0.55;;;0.55;;
11263;SDS011;5689;48.798;9.070;2022-08-19T03:41:03;0.47;;;0.47;;
11263;SDS011;5689;48.798;9.070;2022-08-19T03:43:34;0.40;;;0.40;;
11263;SDS011;5689;48.798;9.070;2022-08-19T03:46:04;0.47;;;0.47;;
11263;SDS011;5689;48.798;9.070;2022-08-19T03:48:35;0.40;;;0.40;;
11263;SDS011;5689;48.798;9.070;2022-08-19T03:51:03;0.30;;;0.30;;
11263;SDS011;5689;48.798;9.070;2022-08-19T03:53:32;0.30;;;0.30;;
11263;SDS011;5689;48.798;9.070;2022-08-19T03:56:01;0.57;;;0.57;;
11263;SDS011;5689;48.798;9.070;2022-08-19T03:58:30;0.38;;;0.38;;
11263;SDS011;5689;48.798;9.070;2022-08-19T04:00:59;0.35;;;0.35;;
11263;SDS011;5689;48.798;9.070;2022-08-19T04:03:27;0.52;;;0.52;;
11263;SDS011;5689;48.798;9.070;2022-08-19T04:05:55;0.40;;;0.40;;
11263;SDS011;5689;48.798;9.070;2022-08-19T04:08:23;0.45;;;0.45;;
11263;SDS011;5689;48.798;9.070;2022-08-19T04:10:51;0.40;;;0.40;;
11263;SDS011;5689;48.798;9.070;2022-08-19T04:13:19;0.43;;;0.43;;
11263;SDS011;5689;48.798;9.070;2022-08-19T04:15:47;0.40;;;0.40;;
11263;SDS011;5689;48.798;9.070;2022-08-19T04:18:17;0.57;;;0.57;;
11263;SDS011;5689;48.798;9.070;2022-08-19T04:20:46;0.40;;;0.40;;
11263;SDS011;5689;48.798;9.070;2022-08-19T04:23:14;0.28;;;0.28;;
11263;SDS011;5689;48.798;9.070;2022-08-19T04:25:43;0.55;;;0.55;;
11263;SDS011;5689;48.798;9.070;2022-08-19T04:28:12;0.32;;;0.32;;
11263;SDS011;5689;48.798;9.070;2022-08-19T04:30:41;0.47;;;0.47;;
11263;SDS011;5689;48.798;9.070;2022-08-19T04:33:10;0.50;;;0.50;;
11263;SDS011;5689;48.798;9.070;2022-08-19T04:35:41;0.75;;;0.75;;
11263;SDS011;5689;48.798;9.070;2022-08-19T04:38:13;0.50;;;0.50;;
11263;SDS011;5689;48.798;9.070;2022-08-19T04:40:42;0.55;;;0.55;;
11263;SDS011;5689;48.798;9.070;2022-08-19T04:43:30;0.40;;;0.40;;
11263;SDS011;5689;48.798;9.070;2022-08-19T04:46:04;0.47;;;0.47;;
11263;SDS011;5689;48.798;9.070;2022-08-19T04:48:33;0.43;;;0.43;;
11263;SDS011;5689;48.798;9.070;2022-08-19T04:51:05;0.52;;;0.52;;
11263;SDS011;5689;48.798;9.070;2022-08-19T04:53:35;0.38;;;0.38;;
11263;SDS011;5689;48.798;9.070;2022-08-19T04:56:05;0.52;;;0.52;;
11263;SDS011;5689;48.798;9.070;2022-08-19T04:58:36;0.35;;;0.35;;
11263;SDS011;5689;48.798;9.070;2022-08-19T05:01:05;0.50;;;0.50;;
11263;SDS011;5689;48.798;9.070;2022-08-19T05:03:33;0.63;;;0.63;;
11263;SDS011;5689;48.798;9.070;2022-08-19T05:06:05;0.30;;;0.30;;
11263;SDS011;5689;48.798;9.070;2022-08-19T05:08:35;0.30;;;0.30;;
11263;SDS011;5689;48.798;9.070;2022-08-19T05:11:08;0.40;;;0.40;;
11263;SDS011;5689;48.798;9.070;2022-08-19T05:13:38;0.55;;;0.55;;
11263;SDS011;5689;48.798;9.070;2022-08-19T05:16:06;0.10;;;0.10;;
11263;SDS011;5689;48.798;9.070;2022-08-19T05:18:34;0.10;;;0.10;;
11263;SDS011;5689;48.798;9.070;2022-08-19T05:21:21;0.20;;;0.20;;
11263;SDS011;5689;48.798;9.070;2022-08-19T05:24:07;0.32;;;0.32;;
11263;SDS011;5689;48.798;9.070;2022-08-19T05:26:35;0.30;;;0.30;;
11263;SDS011;5689;48.798;9.070;2022-08-19T05:29:03;0.30;;;0.30;;
11263;SDS011;5689;48.798;9.070;2022-08-19T05:31:34;0.30;;;0.30;;
11263;SDS011;5689;48.798;9.070;2022-08-19T05:34:04;0.50;;;0.50;;
11263;SDS011;5689;48.798;9.070;2022-08-19T05:36:35;0.40;;;0.40;;
11263;SDS011;5689;48.798;9.070;2022-08-19T05:39:06;0.30;;;0.30;;
11263;SDS011;5689;48.798;9.070;2022-08-19T05:41:36;0.43;;;0.43;;
11263;SDS011;5689;48.798;9.070;2022-08-19T05:44:08;0.47;;;0.47;;
11263;SDS011;5689;48.798;9.070;2022-08-19T05:46:37;0.40;;;0.40;;
11263;SDS011;5689;48.798;9.070;2022-08-19T05:49:06;0.30;;;0.30;;
11263;SDS011;5689;48.798;9.070;2022-08-19T05:51:36;0.40;;;0.40;;
11263;SDS011;5689;48.798;9.070;2022-08-19T05:54:04;0.25;;;0.25;;
11263;SDS011;5689;48.798;9.070;2022-08-19T05:56:34;0.30;;;0.30;;
11263;SDS011;5689;48.798;9.070;2022-08-19T05:59:04;0.40;;;0.40;;
11263;SDS011;5689;48.798;9.070;2022-08-19T06:01:35;0.57;;;0.57;;
11263;SDS011;5689;48.798;9.070;2022-08-19T06:04:04;0.50;;;0.50;;
11263;SDS011;5689;48.798;9.070;2022-08-19T06:06:32;0.45;;;0.45;;
11263;SDS011;5689;48.798;9.070;2022-08-19T06:09:03;0.40;;;0.40;;
11263;SDS011;5689;48.798;9.070;2022-08-19T06:11:32;0.20;;;0.20;;
11263;SDS011;5689;48.798;9.070;2022-08-19T06:14:03;0.43;;;0.43;;
11263;SDS011;5689;48.798;9.070;2022-08-19T06:16:34;0.40;;;0.40;;
11263;SDS011;5689;48.798;9.070;2022-08-19T06:19:02;0.40;;;0.40;;
11263;SDS011;5689;48.798;9.070;2022-08-19T06:21:33;0.20;;;0.20;;
11263;SDS011;5689;48.798;9.070;2022-08-19T06:24:05;0.63;;;0.63;;
11263;SDS011;5689;48.798;9.070;2022-08-19T06:26:36;0.55;;;0.55;;
11263;SDS011;5689;48.798;9.070;2022-08-19T06:29:07;0.40;;;0.40;;
11263;SDS011;5689;48.798;9.070;2022-08-19T06:31:36;0.40;;;0.40;;
11263;SDS011;5689;48.798;9.070;2022-08-19T06:34:04;0.30;;;0.30;;
11263;SDS011;5689;48.798;9.070;2022-08-19T06:36:34;0.40;;;0.40;;
11263;SDS011;5689;48.798;9.070;2022-08-19T06:39:06;0.30;;;0.30;;
11263;SDS011;5689;48.798;9.070;2022-08-19T06:41:36;0.40;;;0.40;;
11263;SDS011;5689;48.798;9.070;2022-08-19T06:44:10;0.30;;;0.30;;
11263;SDS011;5689;48.798;9.070;2022-08-19T06:46:39;0.40;;;0.40;;
11263;SDS011;5689;48.798;9.070;2022-08-19T06:49:08;0.35;;;0.35;;
11263;SDS011;5689;48.798;9.070;2022-08-19T06:51:40;0.47;;;0.47;;
11263;SDS011;5689;48.798;9.070;2022-08-19T06:54:10;0.30;;;0.30;;
11263;SDS011;5689;48.798;9.070;2022-08-19T06:56:38;0.55;;;0.55;;
11263;SDS011;5689;48.798;9.070;2022-08-19T06:59:08;0.43;;;0.43;;
11263;SDS011;5689;48.798;9.070;2022-08-19T07:01:38;0.43;;;0.43;;
11263;SDS011;5689;48.798;9.070;2022-08-19T07:04:08;0.73;;;0.73;;
11263;SDS011;5689;48.798;9.070;2022-08-19T07:06:36;0.40;;;0.40;;
11263;SDS011;5689;48.798;9.070;2022-08-19T07:09:07;0.40;;;0.40;;
11263;SDS011;5689;48.798;9.070;2022-08-19T07:11:38;0.22;;;0.22;;
11263;SDS011;5689;48.798;9.070;2022-08-19T07:14:06;0.43;;;0.43;;
11263;SDS011;5689;48.798;9.070;2022-08-19T07:16:34;0.20;;;0.20;;
11263;SDS011;5689;48.798;9.070;2022-08-19T07:19:02;0.45;;;0.45;;
11263;SDS011;5689;48.798;9.070;2022-08-19T07:21:30;0.30;;;0.30;;
11263;SDS011;5689;48.798;9.070;2022-08-19T07:23:58;0.38;;;0.38;;
11263;SDS011;5689;48.798;9.070;2022-08-19T07:26:27;0.47;;;0.47;;
11263;SDS011;5689;48.798;9.070;2022-08-19T07:28:58;0.30;;;0.30;;
11263;SDS011;5689;48.798;9.070;2022-08-19T07:31:27;0.50;;;0.50;;
11263;SDS011;5689;48.798;9.070;2022-08-19T07:33:56;0.57;;;0.57;;
11263;SDS011;5689;48.798;9.070;2022-08-19T07:36:25;0.60;;;0.60;;
11263;SDS011;5689;48.798;9.070;2022-08-19T07:38:58;0.40;;;0.40;;
11263;SDS011;5689;48.798;9.070;2022-08-19T07:41:28;0.75;;;0.75;;
11263;SDS011;5689;48.798;9.070;2022-08-19T07:43:59;0.60;;;0.60;;
11263;SDS011;5689;48.798;9.070;2022-08-19T07:46:29;0.45;;;0.45;;
11263;SDS011;5689;48.798;9.070;2022-08-19T07:48:57;0.65;;;0.65;;
11263;SDS011;5689;48.798;9.070;2022-08-19T07:51:27;0.32;;;0.32;;
11263;SDS011;5689;48.798;9.070;2022-08-19T07:53:55;0.55;;;0.55;;
11263;SDS011;5689;48.798;9.070;2022-08-19T07:56:24;0.45;;;0.45;;
11263;SDS011;5689;48.798;9.070;2022-08-19T07:58:52;0.57;;;0.57;;
11263;SDS011;5689;48.798;9.070;2022-08-19T08:01:27;0.68;;;0.68;;
11263;SDS011;5689;48.798;9.070;2022-08-19T08:03:56;0.52;;;0.52;;
11263;SDS011;5689;48.798;9.070;2022-08-19T08:06:42;0.75;;;0.75;;
11263;SDS011;5689;48.798;9.070;2022-08-19T08:09:29;0.65;;;0.65;;
11263;SDS011;5689;48.798;9.070;2022-08-19T08:12:00;0.57;;;0.57;;
11263;SDS011;5689;48.798;9.070;2022-08-19T08:14:45;0.70;;;0.70;;
11263;SDS011;5689;48.798;9.070;2022-08-19T08:17:16;0.57;;;0.57;;
11263;SDS011;5689;48.798;9.070;2022-08-19T08:19:47;0.52;;;0.52;;
11263;SDS011;5689;48.798;9.070;2022-08-19T08:22:17;0.68;;;0.68;;
11263;SDS011;5689;48.798;9.070;2022-08-19T08:25:05;0.68;;;0.68;;
11263;SDS011;5689;48.798;9.070;2022-08-19T08:27:36;0.52;;;0.52;;
11263;SDS011;5689;48.798;9.070;2022-08-19T08:30:06;0.63;;;0.63;;
11263;SDS011;5689;48.798;9.070;2022-08-19T08:32:38;0.50;;;0.50;;
11263;SDS011;5689;48.798;9.070;2022-08-19T08:35:07;0.40;;;0.40;;
11263;SDS011;5689;48.798;9.070;2022-08-19T08:37:38;0.82;;;0.82;;
11263;SDS011;5689;48.798;9.070;2022-08-19T08:40:07;0.30;;;0.30;;
11263;SDS011;5689;48.798;9.070;2022-08-19T08:42:54;0.85;;;0.85;;
11263;SDS011;5689;48.798;9.070;2022-08-19T08:45:32;0.88;;;0.88;;
11263;SDS011;5689;48.798;9.070;2022-08-19T08:48:04;0.68;;;0.68;;
11263;SDS011;5689;48.798;9.070;2022-08-19T08:50:41;0.88;;;0.88;;
11263;SDS011;5689;48.798;9.070;2022-08-19T08:53:14;0.60;;;0.60;;
11263;SDS011;5689;48.798;9.070;2022-08-19T08:55:44;0.40;;;0.40;;
11263;SDS011;5689;48.798;9.070;2022-08-19T08:58:15;0.60;;;0.60;;
11263;SDS011;5689;48.798;9.070;2022-08-19T09:00:48;0.60;;;0.60;;
11263;SDS011;5689;48.798;9.070;2022-08-19T09:03:19;0.47;;;0.47;;
11263;SDS011;5689;48.798;9.070;2022-08-19T09:05:51;0.60;;;0.60;;
11263;SDS011;5689;48.798;9.070;2022-08-19T09:08:28;0.50;;;0.50;;
11263;SDS011;5689;48.798;9.070;2022-08-19T09:11:07;0.30;;;0.30;;
11263;SDS011;5689;48.798;9.070;2022-08-19T09:13:39;0.40;;;0.40;;
11263;SDS011;5689;48.798;9.070;2022-08-19T09:16:15;0.45;;;0.45;;
11263;SDS011;5689;48.798;9.070;2022-08-19T09:18:49;0.45;;;0.45;;
11263;SDS011;5689;48.798;9.070;2022-08-19T09:21:20;0.35;;;0.35;;
11263;SDS011;5689;48.798;9.070;2022-08-19T09:23:51;0.20;;;0.20;;
11263;SDS011;5689;48.798;9.070;2022-08-19T09:26:19;0.22;;;0.22;;
11263;SDS011;5689;48.798;9.070;2022-08-19T09:28:50;0.10;;;0.10;;
11263;SDS011;5689;48.798;9.070;2022-08-19T09:31:22;0.22;;;0.22;;
11263;SDS011;5689;48.798;9.070;2022-08-19T09:33:52;0.20;;;0.20;;
11263;SDS011;5689;48.798;9.070;2022-08-19T09:36:23;0.20;;;0.20;;
11263;SDS011;5689;48.798;9.070;2022-08-19T09:38:53;0.10;;;0.10;;
11263;SDS011;5689;48.798;9.070;2022-08-19T09:41:23;0.10;;;0.10;;
11263;SDS011;5689;48.798;9.070;2022-08-19T09:43:53;0.10;;;0.10;;
11263;SDS011;5689;48.798;9.070;2022-08-19T09:46:24;0.10;;;0.10;;
11263;SDS011;5689;48.798;9.070;2022-08-19T09:48:56;0.17;;;0.17;;
11263;SDS011;5689;48.798;9.070;2022-08-19T09:51:26;0.10;;;0.10;;
11263;SDS011;5689;48.798;9.070;2022-08-19T09:53:58;0.10;;;0.10;;
11263;SDS011;5689;48.798;9.070;2022-08-19T09:56:29;0.10;;;0.10;;
11263;SDS011;5689;48.798;9.070;2022-08-19T09:58:58;0.20;;;0.20;;
11263;SDS011;5689;48.798;9.070;2022-08-19T10:01:27;0.10;;;0.10;;
11263;SDS011;5689;48.798;9.070;2022-08-19T10:03:58;0.10;;;0.10;;
11263;SDS011;5689;48.798;9.070;2022-08-19T10:06:29;0.10;;;0.10;;
11263;SDS011;5689;48.798;9.070;2022-08-19T10:08:59;0.10;;;0.10;;
11263;SDS011;5689;48.798;9.070;2022-08-19T10:11:27;0.10;;;0.10;;
11263;SDS011;5689;48.798;9.070;2022-08-19T10:13:55;0.00;;;0.00;;
11263;SDS011;5689;48.798;9.070;2022-08-19T10:16:23;0.03;;;0.03;;
11263;SDS011;5689;48.798;9.070;2022-08-19T10:18:51;0.00;;;0.00;;
11263;SDS011;5689;48.798;9.070;2022-08-19T10:21:22;0.00;;;0.00;;
11263;SDS011;5689;48.798;9.070;2022-08-19T10:23:58;0.10;;;0.10;;
11263;SDS011;5689;48.798;9.070;2022-08-19T10:26:29;0.00;;;0.00;;
11263;SDS011;5689;48.798;9.070;2022-08-19T10:28:59;0.00;;;0.00;;
11263;SDS011;5689;48.798;9.070;2022-08-19T10:31:28;0.10;;;0.10;;
11263;SDS011;5689;48.798;9.070;2022-08-19T10:33:58;0.10;;;0.10;;
11263;SDS011;5689;48.798;9.070;2022-08-19T10:36:28;0.00;;;0.00;;
11263;SDS011;5689;48.798;9.070;2022-08-19T10:38:59;0.10;;;0.10;;
11263;SDS011;5689;48.798;9.070;2022-08-19T10:41:30;0.00;;;0.00;;
11263;SDS011;5689;48.798;9.070;2022-08-19T10:44:00;0.00;;;0.00;;
11263;SDS011;5689;48.798;9.070;2022-08-19T10:46:31;0.00;;;0.00;;
11263;SDS011;5689;48.798;9.070;2022-08-19T10:49:01;0.10;;;0.10;;
11263;SDS011;5689;48.798;9.070;2022-08-19T10:51:31;0.10;;;0.10;;
11263;SDS011;5689;48.798;9.070;2022-08-19T10:54:17;0.03;;;0.03;;
11263;SDS011;5689;48.798;9.070;2022-08-19T10:56:45;0.00;;;0.00;;
11263;SDS011;5689;48.798;9.070;2022-08-19T10:59:19;0.00;;;0.00;;
11263;SDS011;5689;48.798;9.070;2022-08-19T11:01:49;0.00;;;0.00;;
11263;SDS011;5689;48.798;9.070;2022-08-19T11:04:18;0.10;;;0.10;;
11263;SDS011;5689;48.798;9.070;2022-08-19T11:06:50;0.00;;;0.00;;
11263;SDS011;5689;48.798;9.070;2022-08-19T11:09:18;0.10;;;0.10;;
11263;SDS011;5689;48.798;9.070;2022-08-19T11:11:52;0.10;;;0.10;;
11263;SDS011;5689;48.798;9.070;2022-08-19T11:14:23;0.08;;;0.08;;
11263;SDS011;5689;48.798;9.070;2022-08-19T11:16:51;0.10;;;0.10;;
11263;SDS011;5689;48.798;9.070;2022-08-19T11:19:22;0.10;;;0.10;;
11263;SDS011;5689;48.798;9.070;2022-08-19T11:21:51;0.00;;;0.00;;
11263;SDS011;5689;48.798;9.070;2022-08-19T11:24:21;0.00;;;0.00;;
11263;SDS011;5689;48.798;9.070;2022-08-19T11:26:53;0.00;;;0.00;;
11263;SDS011;5689;48.798;9.070;2022-08-19T11:29:25;0.10;;;0.10;;
11263;SDS011;5689;48.798;9.070;2022-08-19T11:31:54;0.00;;;0.00;;
11263;SDS011;5689;48.798;9.070;2022-08-19T11:34:22;0.00;;;0.00;;
11263;SDS011;5689;48.798;9.070;2022-08-19T11:36:55;0.10;;;0.10;;
11263;SDS011;5689;48.798;9.070;2022-08-19T11:39:26;0.10;;;0.10;;
11263;SDS011;5689;48.798;9.070;2022-08-19T11:41:55;0.10;;;0.10;;
11263;SDS011;5689;48.798;9.070;2022-08-19T11:44:24;0.03;;;0.03;;
11263;SDS011;5689;48.798;9.070;2022-08-19T11:46:52;0.00;;;0.00;;
11263;SDS011;5689;48.798;9.070;2022-08-19T11:49:21;0.10;;;0.10;;
11263;SDS011;5689;48.798;9.070;2022-08-19T11:51:49;0.10;;;0.10;;
11263;SDS011;5689;48.798;9.070;2022-08-19T11:54:18;0.10;;;0.10;;
11263;SDS011;5689;48.798;9.070;2022-08-19T11:56:46;0.00;;;0.00;;
11263;SDS011;5689;48.798;9.070;2022-08-19T11:59:15;0.00;;;0.00;;
11263;SDS011;5689;48.798;9.070;2022-08-19T12:01:43;0.10;;;0.10;;
11263;SDS011;5689;48.798;9.070;2022-08-19T12:04:11;0.10;;;0.10;;
11263;SDS011;5689;48.798;9.070;2022-08-19T12:06:40;0.10;;;0.10;;
11263;SDS011;5689;48.798;9.070;2022-08-19T12:09:08;0.10;;;0.10;;
11263;SDS011;5689;48.798;9.070;2022-08-19T12:11:39;0.10;;;0.10;;
11263;SDS011;5689;48.798;9.070;2022-08-19T12:14:09;0.00;;;0.00;;
11263;SDS011;5689;48.798;9.070;2022-08-19T12:16:40;0.17;;;0.17;;
11263;SDS011;5689;48.798;9.070;2022-08-19T12:19:08;0.10;;;0.10;;
11263;SDS011;5689;48.798;9.070;2022-08-19T12:21:36;0.10;;;0.10;;
11263;SDS011;5689;48.798;9.070;2022-08-19T12:24:05;0.10;;;0.10;;
11263;SDS011;5689;48.798;9.070;2022-08-19T12:26:34;0.10;;;0.10;;
11263;SDS011;5689;48.798;9.070;2022-08-19T12:29:04;0.10;;;0.10;;
11263;SDS011;5689;48.798;9.070;2022-08-19T12:31:34;0.10;;;0.10;;
11263;SDS011;5689;48.798;9.070;2022-08-19T12:34:02;0.10;;;0.10;;
11263;SDS011;5689;48.798;9.070;2022-08-19T12:36:30;0.10;;;0.10;;
11263;SDS011;5689;48.798;9.070;2022-08-19T12:38:58;0.10;;;0.10;;
11263;SDS011;5689;48.798;9.070;2022-08-19T12:41:27;0.10;;;0.10;;
11263;SDS011;5689;48.798;9.070;2022-08-19T12:43:55;0.10;;;0.10;;
11263;SDS011;5689;48.798;9.070;2022-08-19T12:46:24;0.10;;;0.10;;
11263;SDS011;5689;48.798;9.070;2022-08-19T12:48:52;0.10;;;0.10;;
11263;SDS011;5689;48.798;9.070;2022-08-19T12:51:20;0.00;;;0.00;;
11263;SDS011;5689;48.798;9.070;2022-08-19T12:53:49;0.10;;;0.10;;
11263;SDS011;5689;48.798;9.070;2022-08-19T12:56:17;0.00;;;0.00;;
11263;SDS011;5689;48.798;9.070;2022-08-19T12:58:48;0.10;;;0.10;;
11263;SDS011;5689;48.798;9.070;2022-08-19T13:01:16;0.10;;;0.10;;
11263;SDS011;5689;48.798;9.070;2022-08-19T13:03:47;0.10;;;0.10;;
11263;SDS011;5689;48.798;9.070;2022-08-19T13:06:15;0.10;;;0.10;;
11263;SDS011;5689;48.798;9.070;2022-08-19T13:08:43;0.10;;;0.10;;
11263;SDS011;5689;48.798;9.070;2022-08-19T13:11:12;0.10;;;0.10;;
11263;SDS011;5689;48.798;9.070;2022-08-19T13:13:44;0.10;;;0.10;;
11263;SDS011;5689;48.798;9.070;2022-08-19T13:16:13;0.00;;;0.00;;
11263;SDS011;5689;48.798;9.070;2022-08-19T13:18:43;0.00;;;0.00;;
11263;SDS011;5689;48.798;9.070;2022-08-19T13:21:15;0.00;;;0.00;;
11263;SDS011;5689;48.798;9.070;2022-08-19T13:23:43;0.00;;;0.00;;
11263;SDS011;5689;48.798;9.070;2022-08-19T13:26:11;0.00;;;0.00;;
11263;SDS011;5689;48.798;9.070;2022-08-19T13:28:40;0.00;;;0.00;;
11263;SDS011;5689;48.798;9.070;2022-08-19T13:31:27;0.00;;;0.00;;
11263;SDS011;5689;48.798;9.070;2022-08-19T13:34:15;0.00;;;0.00;;
11263;SDS011;5689;48.798;9.070;2022-08-19T13:36:45;0.00;;;0.00;;
11263;SDS011;5689;48.798;9.070;2022-08-19T13:39:13;0.00;;;0.00;;
11263;SDS011;5689;48.798;9.070;2022-08-19T13:41:43;0.00;;;0.00;;
11263;SDS011;5689;48.798;9.070;2022-08-19T13:44:14;0.00;;;0.00;;
11263;SDS011;5689;48.798;9.070;2022-08-19T13:46:44;0.00;;;0.00;;
11263;SDS011;5689;48.798;9.070;2022-08-19T13:49:13;0.00;;;0.00;;
11263;SDS011;5689;48.798;9.070;2022-08-19T13:51:42;0.00;;;0.00;;
11263;SDS011;5689;48.798;9.070;2022-08-19T13:54:11;0.00;;;0.00;;
11263;SDS011;5689;48.798;9.070;2022-08-19T13:56:40;0.00;;;0.00;;
11263;SDS011;5689;48.798;9.070;2022-08-19T13:59:09;0.00;;;0.00;;
11263;SDS011;5689;48.798;9.070;2022-08-19T14:01:37;0.05;;;0.05;;
11263;SDS011;5689;48.798;9.070;2022-08-19T14:04:06;0.00;;;0.00;;
11263;SDS011;5689;48.798;9.070;2022-08-19T14:06:35;0.00;;;0.00;;
11263;SDS011;5689;48.798;9.070;2022-08-19T14:09:03;0.00;;;0.00;;
11263;SDS011;5689;48.798;9.070;2022-08-19T14:11:33;0.10;;;0.10;;
11263;SDS011;5689;48.798;9.070;2022-08-19T14:14:01;0.10;;;0.10;;
11263;SDS011;5689;48.798;9.070;2022-08-19T14:16:29;0.10;;;0.10;;
11263;SDS011;5689;48.798;9.070;2022-08-19T14:18:57;0.10;;;0.10;;
11263;SDS011;5689;48.798;9.070;2022-08-19T14:21:25;0.10;;;0.10;;
11263;SDS011;5689;48.798;9.070;2022-08-19T14:23:53;0.00;;;0.00;;
11263;SDS011;5689;48.798;9.070;2022-08-19T14:26:21;0.00;;;0.00;;
11263;SDS011;5689;48.798;9.070;2022-08-19T14:28:51;0.00;;;0.00;;
11263;SDS011;5689;48.798;9.070;2022-08-19T14:31:20;0.00;;;0.00;;
11263;SDS011;5689;48.798;9.070;2022-08-19T14:33:52;0.00;;;0.00;;
11263;SDS011;5689;48.798;9.070;2022-08-19T14:36:20;0.00;;;0.00;;
11263;SDS011;5689;48.798;9.070;2022-08-19T14:38:48;0.00;;;0.00;;
11263;SDS011;5689;48.798;9.070;2022-08-19T14:41:16;0.00;;;0.00;;
11263;SDS011;5689;48.798;9.070;2022-08-19T14:43:47;0.00;;;0.00;;
11263;SDS011;5689;48.798;9.070;2022-08-19T14:46:19;0.00;;;0.00;;
11263;SDS011;5689;48.798;9.070;2022-08-19T14:48:48;0.00;;;0.00;;
11263;SDS011;5689;48.798;9.070;2022-08-19T14:51:17;0.00;;;0.00;;
11263;SDS011;5689;48.798;9.070;2022-08-19T14:53:45;0.00;;;0.00;;
11263;SDS011;5689;48.798;9.070;2022-08-19T14:56:15;0.00;;;0.00;;
11263;SDS011;5689;48.798;9.070;2022-08-19T14:58:47;0.00;;;0.00;;
11263;SDS011;5689;48.798;9.070;2022-08-19T15:01:19;0.00;;;0.00;;
11263;SDS011;5689;48.798;9.070;2022-08-19T15:03:49;0.00;;;0.00;;
11263;SDS011;5689;48.798;9.070;2022-08-19T15:06:19;0.00;;;0.00;;
11263;SDS011;5689;48.798;9.070;2022-08-19T15:08:48;0.00;;;0.00;;
11263;SDS011;5689;48.798;9.070;2022-08-19T15:11:18;0.00;;;0.00;;
11263;SDS011;5689;48.798;9.070;2022-08-19T15:13:49;0.00;;;0.00;;
11263;SDS011;5689;48.798;9.070;2022-08-19T15:16:19;0.00;;;0.00;;
11263;SDS011;5689;48.798;9.070;2022-08-19T15:18:50;0.00;;;0.00;;